createdAt,value
2022-09-22T00:00:04.061Z,83.71
2022-09-22T00:00:14.111Z,83.71
2022-09-22T00:00:24.211Z,83.71
2022-09-22T00:00:34.283Z,83.81
2022-09-22T00:00:44.361Z,83.81
2022-09-22T00:00:54.392Z,83.81
2022-09-22T00:01:04.520Z,83.81
2022-09-22T00:01:14.712Z,83.92
2022-09-22T00:01:24.795Z,83.92
2022-09-22T00:01:34.928Z,83.92
2022-09-22T00:01:45.020Z,83.92
2022-09-22T00:01:55.282Z,83.92
2022-09-22T00:02:05.277Z,83.92
2022-09-22T00:02:15.413Z,84.01
2022-09-22T00:02:25.531Z,84.01
2022-09-22T00:02:35.591Z,84.01
2022-09-22T00:02:45.659Z,84.01
2022-09-22T00:02:55.700Z,84.01
2022-09-22T00:03:05.760Z,84.01
2022-09-22T00:03:15.801Z,84.12
2022-09-22T00:03:25.881Z,84.12
2022-09-22T00:03:35.930Z,84.12
2022-09-22T00:03:45.978Z,84.12
2022-09-22T00:03:56.038Z,84.01
2022-09-22T00:04:06.107Z,84.01
2022-09-22T00:04:16.138Z,84.01
2022-09-22T00:04:26.294Z,84.01
2022-09-22T00:04:36.351Z,84.01
2022-09-22T00:04:46.402Z,84.01
2022-09-22T00:04:56.448Z,84.01
2022-09-22T00:05:06.482Z,84.01
2022-09-22T00:05:16.541Z,84.01
2022-09-22T00:05:26.591Z,84.01
2022-09-22T00:05:36.638Z,84.01
2022-09-22T00:05:46.699Z,84.01
2022-09-22T00:05:56.740Z,84.01
2022-09-22T00:06:06.781Z,84.01
2022-09-22T00:06:16.830Z,84.01
2022-09-22T00:06:26.879Z,84.01
2022-09-22T00:06:36.930Z,84.01
2022-09-22T00:06:47.061Z,84.01
2022-09-22T00:06:57.160Z,84.01
2022-09-22T00:07:07.212Z,84.01
2022-09-22T00:07:17.261Z,84.01
2022-09-22T00:07:27.301Z,84.01
2022-09-22T00:07:37.381Z,84.01
2022-09-22T00:07:47.438Z,84.01
2022-09-22T00:07:57.551Z,84.01
2022-09-22T00:08:07.600Z,84.01
2022-09-22T00:08:17.651Z,84.01
2022-09-22T00:08:27.700Z,84.01
2022-09-22T00:08:37.759Z,84.01
2022-09-22T00:08:47.800Z,83.92
2022-09-22T00:08:57.851Z,83.92
2022-09-22T00:09:07.918Z,83.92
2022-09-22T00:09:17.969Z,83.92
2022-09-22T00:09:28.021Z,83.92
2022-09-22T00:09:38.079Z,83.92
2022-09-22T00:09:48.133Z,83.92
2022-09-22T00:09:58.191Z,83.92
2022-09-22T00:10:08.238Z,83.92
2022-09-22T00:10:18.281Z,83.92
2022-09-22T00:10:30.986Z,83.92
2022-09-22T00:10:38.487Z,83.92
2022-09-22T00:10:48.519Z,83.81
2022-09-22T00:10:58.603Z,83.81
2022-09-22T00:11:08.650Z,83.81
2022-09-22T00:11:18.726Z,83.81
2022-09-22T00:11:28.780Z,83.81
2022-09-22T00:11:38.813Z,83.81
2022-09-22T00:11:48.863Z,83.71
2022-09-22T00:11:58.900Z,83.71
2022-09-22T00:12:08.980Z,83.71
2022-09-22T00:12:19.011Z,83.71
2022-09-22T00:12:29.062Z,83.71
2022-09-22T00:12:39.091Z,83.71
2022-09-22T00:12:49.147Z,83.71
2022-09-22T00:12:59.270Z,83.71
2022-09-22T00:13:09.329Z,83.71
2022-09-22T00:13:19.401Z,83.71
2022-09-22T00:13:29.451Z,83.71
2022-09-22T00:13:39.508Z,83.71
2022-09-22T00:13:49.559Z,83.71
2022-09-22T00:13:59.590Z,83.71
2022-09-22T00:14:09.631Z,83.61
2022-09-22T00:14:19.680Z,83.61
2022-09-22T00:14:29.809Z,83.61
2022-09-22T00:14:39.921Z,83.61
2022-09-22T00:14:49.963Z,83.61
2022-09-22T00:15:00.031Z,83.61
2022-09-22T00:15:10.091Z,83.61
2022-09-22T00:15:20.120Z,83.61
2022-09-22T00:15:30.166Z,83.61
2022-09-22T00:15:40.210Z,83.61
2022-09-22T00:15:50.261Z,83.51
2022-09-22T00:16:00.407Z,83.51
2022-09-22T00:16:10.503Z,83.51
2022-09-22T00:16:20.608Z,83.51
2022-09-22T00:16:30.695Z,83.51
2022-09-22T00:16:40.733Z,83.51
2022-09-22T00:16:50.858Z,83.51
2022-09-22T00:17:00.930Z,83.51
2022-09-22T00:17:10.980Z,83.51
2022-09-22T00:17:21.030Z,83.51
2022-09-22T00:17:31.100Z,83.51
2022-09-22T00:17:41.161Z,83.51
2022-09-22T00:17:51.240Z,83.51
2022-09-22T00:18:01.320Z,83.61
2022-09-22T00:18:11.387Z,83.61
2022-09-22T00:18:21.440Z,83.61
2022-09-22T00:18:31.510Z,83.61
2022-09-22T00:18:41.561Z,83.61
2022-09-22T00:18:51.640Z,83.61
2022-09-22T00:19:01.700Z,83.61
2022-09-22T00:19:11.761Z,83.61
2022-09-22T00:19:21.827Z,83.61
2022-09-22T00:19:31.899Z,83.61
2022-09-22T00:19:41.963Z,83.61
2022-09-22T00:19:52.030Z,83.61
2022-09-22T00:20:02.100Z,83.61
2022-09-22T00:20:12.170Z,83.61
2022-09-22T00:20:22.242Z,83.61
2022-09-22T00:20:32.309Z,83.61
2022-09-22T00:20:42.400Z,83.61
2022-09-22T00:20:52.482Z,83.61
2022-09-22T00:21:02.577Z,83.71
2022-09-22T00:21:12.630Z,83.61
2022-09-22T00:21:22.710Z,83.61
2022-09-22T00:21:32.780Z,83.61
2022-09-22T00:21:42.859Z,83.61
2022-09-22T00:21:52.940Z,83.61
2022-09-22T00:22:03.019Z,83.61
2022-09-22T00:22:13.099Z,83.61
2022-09-22T00:22:23.207Z,83.61
2022-09-22T00:22:33.301Z,83.61
2022-09-22T00:22:43.411Z,83.61
2022-09-22T00:22:53.500Z,83.61
2022-09-22T00:23:03.573Z,83.61
2022-09-22T00:23:13.647Z,83.61
2022-09-22T00:23:23.709Z,83.71
2022-09-22T00:23:33.779Z,83.71
2022-09-22T00:23:43.840Z,83.71
2022-09-22T00:23:53.909Z,83.61
2022-09-22T00:24:04.000Z,83.61
2022-09-22T00:24:14.081Z,83.61
2022-09-22T00:24:24.177Z,83.51
2022-09-22T00:24:34.249Z,83.51
2022-09-22T00:24:44.328Z,83.51
2022-09-22T00:24:54.390Z,83.51
2022-09-22T00:25:04.467Z,83.51
2022-09-22T00:25:14.529Z,83.51
2022-09-22T00:25:24.591Z,83.51
2022-09-22T00:25:34.655Z,83.51
2022-09-22T00:25:44.729Z,83.51
2022-09-22T00:25:54.789Z,83.51
2022-09-22T00:26:04.861Z,83.51
2022-09-22T00:26:14.938Z,83.51
2022-09-22T00:26:25.021Z,83.51
2022-09-22T00:26:35.079Z,83.51
2022-09-22T00:26:45.168Z,83.51
2022-09-22T00:26:55.254Z,83.51
2022-09-22T00:27:05.309Z,83.51
2022-09-22T00:27:15.378Z,83.51
2022-09-22T00:27:25.438Z,83.51
2022-09-22T00:27:35.500Z,83.51
2022-09-22T00:27:45.569Z,83.51
2022-09-22T00:27:55.658Z,83.51
2022-09-22T00:28:05.719Z,83.51
2022-09-22T00:28:15.780Z,83.51
2022-09-22T00:28:25.849Z,83.51
2022-09-22T00:28:36.093Z,83.51
2022-09-22T00:28:46.013Z,83.61
2022-09-22T00:28:56.069Z,83.61
2022-09-22T00:29:06.139Z,83.61
2022-09-22T00:29:16.199Z,83.61
2022-09-22T00:29:26.256Z,83.61
2022-09-22T00:29:36.307Z,83.71
2022-09-22T00:29:46.359Z,83.71
2022-09-22T00:29:56.409Z,83.75
2022-09-22T00:30:06.469Z,83.75
2022-09-22T00:30:16.530Z,83.75
2022-09-22T00:30:26.609Z,83.75
2022-09-22T00:30:36.690Z,83.85
2022-09-22T00:30:46.749Z,83.85
2022-09-22T00:30:56.826Z,83.85
2022-09-22T00:31:06.914Z,83.95
2022-09-22T00:31:17.075Z,83.95
2022-09-22T00:31:27.025Z,83.95
2022-09-22T00:31:37.133Z,83.95
2022-09-22T00:31:47.284Z,83.95
2022-09-22T00:31:57.412Z,83.95
2022-09-22T00:32:07.765Z,83.95
2022-09-22T00:32:17.520Z,83.95
2022-09-22T00:32:27.571Z,84.06
2022-09-22T00:32:37.618Z,84.06
2022-09-22T00:32:47.669Z,84.06
2022-09-22T00:32:57.739Z,84.06
2022-09-22T00:33:07.788Z,84.06
2022-09-22T00:33:17.856Z,84.16
2022-09-22T00:33:27.909Z,84.16
2022-09-22T00:33:37.968Z,84.16
2022-09-22T00:33:48.032Z,84.16
2022-09-22T00:33:58.087Z,84.16
2022-09-22T00:34:08.142Z,84.16
2022-09-22T00:34:18.219Z,84.16
2022-09-22T00:34:28.266Z,84.16
2022-09-22T00:34:38.318Z,84.16
2022-09-22T00:34:48.368Z,84.16
2022-09-22T00:34:58.428Z,84.16
2022-09-22T00:35:08.479Z,84.16
2022-09-22T00:35:18.534Z,84.16
2022-09-22T00:35:28.559Z,84.16
2022-09-22T00:35:38.636Z,84.16
2022-09-22T00:35:48.679Z,84.06
2022-09-22T00:35:58.767Z,84.06
2022-09-22T00:36:08.840Z,84.06
2022-09-22T00:36:18.899Z,84.06
2022-09-22T00:36:28.985Z,84.06
2022-09-22T00:36:39.030Z,84.06
2022-09-22T00:36:49.089Z,84.06
2022-09-22T00:36:59.148Z,84.06
2022-09-22T00:37:09.200Z,84.06
2022-09-22T00:37:19.255Z,84.06
2022-09-22T00:37:29.327Z,84.06
2022-09-22T00:37:39.395Z,84.06
2022-09-22T00:37:49.431Z,84.06
2022-09-22T00:37:59.499Z,84.16
2022-09-22T00:38:09.568Z,84.16
2022-09-22T00:38:19.608Z,84.16
2022-09-22T00:38:29.658Z,84.16
2022-09-22T00:38:39.728Z,84.26
2022-09-22T00:38:49.780Z,84.26
2022-09-22T00:38:59.923Z,84.26
2022-09-22T00:39:09.993Z,84.26
2022-09-22T00:39:20.037Z,84.26
2022-09-22T00:39:30.088Z,84.26
2022-09-22T00:39:40.177Z,84.26
2022-09-22T00:39:50.227Z,84.26
2022-09-22T00:40:00.533Z,84.26
2022-09-22T00:40:10.449Z,84.26
2022-09-22T00:40:20.549Z,84.26
2022-09-22T00:40:30.728Z,84.36
2022-09-22T00:40:40.910Z,84.36
2022-09-22T00:40:50.987Z,84.36
2022-09-22T00:41:01.031Z,84.36
2022-09-22T00:41:11.078Z,84.36
2022-09-22T00:41:21.141Z,84.36
2022-09-22T00:41:31.198Z,84.36
2022-09-22T00:41:41.238Z,84.36
2022-09-22T00:41:51.322Z,84.36
2022-09-22T00:42:01.358Z,84.36
2022-09-22T00:42:11.418Z,84.36
2022-09-22T00:42:21.468Z,84.36
2022-09-22T00:42:31.569Z,84.36
2022-09-22T00:42:41.609Z,84.47
2022-09-22T00:42:51.678Z,84.47
2022-09-22T00:43:01.738Z,84.47
2022-09-22T00:43:11.787Z,84.47
2022-09-22T00:43:21.830Z,84.47
2022-09-22T00:43:31.908Z,84.47
2022-09-22T00:43:41.950Z,84.47
2022-09-22T00:43:51.997Z,84.57
2022-09-22T00:44:02.039Z,84.57
2022-09-22T00:44:12.107Z,84.57
2022-09-22T00:44:22.148Z,84.57
2022-09-22T00:44:32.189Z,84.57
2022-09-22T00:44:42.237Z,84.67
2022-09-22T00:44:52.278Z,84.67
2022-09-22T00:45:02.319Z,84.67
2022-09-22T00:45:12.348Z,84.67
2022-09-22T00:45:22.396Z,84.71
2022-09-22T00:45:32.428Z,84.81
2022-09-22T00:45:42.468Z,84.81
2022-09-22T00:45:52.548Z,84.81
2022-09-22T00:46:02.608Z,84.81
2022-09-22T00:46:12.736Z,84.81
2022-09-22T00:46:22.877Z,84.81
2022-09-22T00:46:32.954Z,84.81
2022-09-22T00:46:43.117Z,84.81
2022-09-22T00:46:53.217Z,84.91
2022-09-22T00:47:03.397Z,84.91
2022-09-22T00:47:13.318Z,84.91
2022-09-22T00:47:23.379Z,84.91
2022-09-22T00:47:33.422Z,84.91
2022-09-22T00:47:43.469Z,84.91
2022-09-22T00:47:53.515Z,84.91
2022-09-22T00:48:03.556Z,84.91
2022-09-22T00:48:13.587Z,85.02
2022-09-22T00:48:23.645Z,85.02
2022-09-22T00:48:33.768Z,85.02
2022-09-22T00:48:43.809Z,85.02
2022-09-22T00:48:53.858Z,85.02
2022-09-22T00:49:03.899Z,85.02
2022-09-22T00:49:13.939Z,85.02
2022-09-22T00:49:23.979Z,85.02
2022-09-22T00:49:34.027Z,85.02
2022-09-22T00:49:44.088Z,85.12
2022-09-22T00:49:54.157Z,85.12
2022-09-22T00:50:04.238Z,85.12
2022-09-22T00:50:14.277Z,85.12
2022-09-22T00:50:24.315Z,85.12
2022-09-22T00:50:34.359Z,85.12
2022-09-22T00:50:44.398Z,85.12
2022-09-22T00:50:54.429Z,85.22
2022-09-22T00:51:04.459Z,85.22
2022-09-22T00:51:14.501Z,85.22
2022-09-22T00:51:24.528Z,85.22
2022-09-22T00:51:34.568Z,85.22
2022-09-22T00:51:44.608Z,85.22
2022-09-22T00:51:54.647Z,85.22
2022-09-22T00:52:04.668Z,85.22
2022-09-22T00:52:14.718Z,85.32
2022-09-22T00:52:24.737Z,85.32
2022-09-22T00:52:34.799Z,85.32
2022-09-22T00:52:44.878Z,85.32
2022-09-22T00:52:54.927Z,85.32
2022-09-22T00:53:04.958Z,85.32
2022-09-22T00:53:15.005Z,85.32
2022-09-22T00:53:25.038Z,85.32
2022-09-22T00:53:35.077Z,85.32
2022-09-22T00:53:45.146Z,85.32
2022-09-22T00:53:55.185Z,85.32
2022-09-22T00:54:05.288Z,85.32
2022-09-22T00:54:15.379Z,85.32
2022-09-22T00:54:25.417Z,85.32
2022-09-22T00:54:35.458Z,85.32
2022-09-22T00:54:45.487Z,85.32
2022-09-22T00:54:55.552Z,85.32
2022-09-22T00:55:05.578Z,85.32
2022-09-22T00:55:15.634Z,85.32
2022-09-22T00:55:25.684Z,85.32
2022-09-22T00:55:35.727Z,85.32
2022-09-22T00:55:45.797Z,85.32
2022-09-22T00:55:55.878Z,85.32
2022-09-22T00:56:05.932Z,85.32
2022-09-22T00:56:15.998Z,85.42
2022-09-22T00:56:26.047Z,85.42
2022-09-22T00:56:36.124Z,85.42
2022-09-22T00:56:46.267Z,85.42
2022-09-22T00:56:56.315Z,85.42
2022-09-22T00:57:06.348Z,85.42
2022-09-22T00:57:16.405Z,85.42
2022-09-22T00:57:26.447Z,85.42
2022-09-22T00:57:36.497Z,85.42
2022-09-22T00:57:46.548Z,85.42
2022-09-22T00:57:56.608Z,85.42
2022-09-22T00:58:06.658Z,85.42
2022-09-22T00:58:16.705Z,85.42
2022-09-22T00:58:26.759Z,85.42
2022-09-22T00:58:36.838Z,85.42
2022-09-22T00:58:46.888Z,85.42
2022-09-22T00:58:56.937Z,85.42
2022-09-22T00:59:06.968Z,85.42
2022-09-22T00:59:17.026Z,85.42
2022-09-22T00:59:27.065Z,85.42
2022-09-22T00:59:37.098Z,85.42
2022-09-22T00:59:47.157Z,85.42
2022-09-22T00:59:57.206Z,85.42
2022-09-22T01:00:07.247Z,85.42
2022-09-22T01:00:17.296Z,85.42
2022-09-22T01:00:27.394Z,85.42
2022-09-22T01:00:37.477Z,85.42
2022-09-22T01:00:47.616Z,85.42
2022-09-22T01:00:57.761Z,85.42
2022-09-22T01:01:07.900Z,85.42
2022-09-22T01:01:17.993Z,85.42
2022-09-22T01:01:28.049Z,85.42
2022-09-22T01:01:38.122Z,85.42
2022-09-22T01:01:48.250Z,85.42
2022-09-22T01:01:58.372Z,85.42
2022-09-22T01:02:08.491Z,85.42
2022-09-22T01:02:18.615Z,85.42
2022-09-22T01:02:28.677Z,85.42
2022-09-22T01:02:38.735Z,85.42
2022-09-22T01:02:48.828Z,85.42
2022-09-22T01:02:58.868Z,85.42
2022-09-22T01:03:08.975Z,85.42
2022-09-22T01:03:19.014Z,85.42
2022-09-22T01:03:30.161Z,85.42
2022-09-22T01:03:39.160Z,85.42
2022-09-22T01:03:49.251Z,85.42
2022-09-22T01:03:59.297Z,85.42
2022-09-22T01:04:09.349Z,85.42
2022-09-22T01:04:19.399Z,85.42
2022-09-22T01:04:29.467Z,85.42
2022-09-22T01:04:39.556Z,85.42
2022-09-22T01:04:49.605Z,85.42
2022-09-22T01:04:59.648Z,85.42
2022-09-22T01:05:09.696Z,85.42
2022-09-22T01:05:19.768Z,85.42
2022-09-22T01:05:29.817Z,85.42
2022-09-22T01:05:39.886Z,85.42
2022-09-22T01:05:49.940Z,85.42
2022-09-22T01:05:59.987Z,85.42
2022-09-22T01:06:10.107Z,85.42
2022-09-22T01:06:20.165Z,85.42
2022-09-22T01:06:30.217Z,85.42
2022-09-22T01:06:40.267Z,85.53
2022-09-22T01:07:27.604Z,85.63
2022-09-22T01:07:37.666Z,85.63
2022-09-22T01:07:47.758Z,85.63
2022-09-22T01:07:57.830Z,85.63
2022-09-22T01:08:07.896Z,85.63
2022-09-22T01:08:17.977Z,85.63
2022-09-22T01:08:28.057Z,85.63
2022-09-22T01:08:38.177Z,85.63
2022-09-22T01:08:48.304Z,85.63
2022-09-22T01:08:58.367Z,85.53
2022-09-22T01:09:08.434Z,85.53
2022-09-22T01:09:18.524Z,85.53
2022-09-22T01:09:28.614Z,85.53
2022-09-22T01:09:38.696Z,85.53
2022-09-22T01:09:48.777Z,85.53
2022-09-22T01:09:58.876Z,85.53
2022-09-22T01:10:08.946Z,85.53
2022-09-22T01:10:19.017Z,85.53
2022-09-22T01:10:29.096Z,85.53
2022-09-22T01:10:45.147Z,85.53
2022-09-22T01:10:55.280Z,85.53
2022-09-22T01:11:05.428Z,85.53
2022-09-22T01:11:15.527Z,85.53
2022-09-22T01:11:25.626Z,85.53
2022-09-22T01:11:35.714Z,85.53
2022-09-22T01:11:45.805Z,85.53
2022-09-22T01:11:55.856Z,85.53
2022-09-22T01:12:05.925Z,85.53
2022-09-22T01:12:16.008Z,85.53
2022-09-22T01:12:26.085Z,85.53
2022-09-22T01:12:36.177Z,85.53
2022-09-22T01:12:46.246Z,85.53
2022-09-22T01:12:56.317Z,85.42
2022-09-22T01:13:06.405Z,85.42
2022-09-22T01:13:16.476Z,85.42
2022-09-22T01:13:26.574Z,85.42
2022-09-22T01:13:36.665Z,85.32
2022-09-22T01:13:46.745Z,85.32
2022-09-22T01:13:56.846Z,85.32
2022-09-22T01:14:06.925Z,85.32
2022-09-22T01:14:16.995Z,85.22
2022-09-22T01:14:27.058Z,85.22
2022-09-22T01:14:37.125Z,85.22
2022-09-22T01:14:47.206Z,85.22
2022-09-22T01:14:57.285Z,85.22
2022-09-22T01:15:07.357Z,85.26
2022-09-22T01:15:17.426Z,85.22
2022-09-22T01:15:27.497Z,85.32
2022-09-22T01:15:37.582Z,85.36
2022-09-22T01:15:47.705Z,85.36
2022-09-22T01:15:57.747Z,85.36
2022-09-22T01:16:07.888Z,85.36
2022-09-22T01:16:17.987Z,85.47
2022-09-22T01:16:28.142Z,85.47
2022-09-22T01:16:38.105Z,85.47
2022-09-22T01:16:48.175Z,85.47
2022-09-22T01:16:58.256Z,85.47
2022-09-22T01:17:08.334Z,85.47
2022-09-22T01:17:18.406Z,85.47
2022-09-22T01:17:28.466Z,85.47
2022-09-22T01:17:38.537Z,85.47
2022-09-22T01:17:48.606Z,85.47
2022-09-22T01:17:58.710Z,85.47
2022-09-22T01:18:08.773Z,85.47
2022-09-22T01:18:18.846Z,85.57
2022-09-22T01:18:28.918Z,85.57
2022-09-22T01:18:38.996Z,85.57
2022-09-22T01:18:49.065Z,85.57
2022-09-22T01:18:59.115Z,85.57
2022-09-22T01:19:09.173Z,85.67
2022-09-22T01:19:19.235Z,85.67
2022-09-22T01:19:29.289Z,85.67
2022-09-22T01:19:39.364Z,85.67
2022-09-22T01:19:49.442Z,85.77
2022-09-22T01:19:59.513Z,85.77
2022-09-22T01:20:09.565Z,85.77
2022-09-22T01:20:19.633Z,85.77
2022-09-22T01:20:29.685Z,85.77
2022-09-22T01:20:39.745Z,85.77
2022-09-22T01:20:49.876Z,85.77
2022-09-22T01:20:59.945Z,85.88
2022-09-22T01:21:09.996Z,85.88
2022-09-22T01:21:20.096Z,85.88
2022-09-22T01:21:30.196Z,85.88
2022-09-22T01:21:40.264Z,85.97
2022-09-22T01:21:50.325Z,85.97
2022-09-22T01:22:00.426Z,85.97
2022-09-22T01:22:10.518Z,85.97
2022-09-22T01:22:20.565Z,85.97
2022-09-22T01:22:30.644Z,85.97
2022-09-22T01:22:40.705Z,85.97
2022-09-22T01:22:50.775Z,86.08
2022-09-22T01:23:00.864Z,86.08
2022-09-22T01:23:10.935Z,86.08
2022-09-22T01:23:21.015Z,86.08
2022-09-22T01:23:31.096Z,86.08
2022-09-22T01:23:41.176Z,86.18
2022-09-22T01:23:51.244Z,86.18
2022-09-22T01:24:01.337Z,86.18
2022-09-22T01:24:11.425Z,86.18
2022-09-22T01:24:21.514Z,86.18
2022-09-22T01:24:31.576Z,86.29
2022-09-22T01:24:41.704Z,86.29
2022-09-22T01:24:51.774Z,86.29
2022-09-22T01:25:01.846Z,86.29
2022-09-22T01:25:11.925Z,86.29
2022-09-22T01:25:21.997Z,86.43
2022-09-22T01:25:32.074Z,86.38
2022-09-22T01:25:42.135Z,86.38
2022-09-22T01:25:52.264Z,86.38
2022-09-22T01:26:02.383Z,86.43
2022-09-22T01:26:12.485Z,86.43
2022-09-22T01:26:22.567Z,86.43
2022-09-22T01:26:32.665Z,86.38
2022-09-22T01:26:42.745Z,86.38
2022-09-22T01:26:52.844Z,86.43
2022-09-22T01:27:02.915Z,86.43
2022-09-22T01:27:13.013Z,86.38
2022-09-22T01:27:23.107Z,86.43
2022-09-22T01:27:33.174Z,86.38
2022-09-22T01:27:43.245Z,86.43
2022-09-22T01:27:53.335Z,86.32
2022-09-22T01:28:03.423Z,86.32
2022-09-22T01:28:13.507Z,86.32
2022-09-22T01:28:23.593Z,86.32
2022-09-22T01:28:33.666Z,86.32
2022-09-22T01:28:43.749Z,86.32
2022-09-22T01:28:53.826Z,86.32
2022-09-22T01:29:03.915Z,86.32
2022-09-22T01:29:14.023Z,86.32
2022-09-22T01:29:24.105Z,86.32
2022-09-22T01:29:34.176Z,86.32
2022-09-22T01:29:44.334Z,86.32
2022-09-22T01:29:54.403Z,86.32
2022-09-22T01:30:04.465Z,86.32
2022-09-22T01:30:14.535Z,86.43
2022-09-22T01:30:24.607Z,86.43
2022-09-22T01:30:34.735Z,86.43
2022-09-22T01:30:44.802Z,86.43
2022-09-22T01:30:54.916Z,86.43
2022-09-22T01:31:05.082Z,86.43
2022-09-22T01:31:15.215Z,86.53
2022-09-22T01:31:25.275Z,86.53
2022-09-22T01:31:35.412Z,86.53
2022-09-22T01:31:45.568Z,86.53
2022-09-22T01:31:55.627Z,86.53
2022-09-22T01:32:05.695Z,86.53
2022-09-22T01:32:15.775Z,86.53
2022-09-22T01:32:25.848Z,86.53
2022-09-22T01:32:35.928Z,86.63
2022-09-22T01:32:46.005Z,86.63
2022-09-22T01:32:56.122Z,86.63
2022-09-22T01:33:06.198Z,86.63
2022-09-22T01:33:16.282Z,86.63
2022-09-22T01:33:26.345Z,86.63
2022-09-22T01:33:36.514Z,86.63
2022-09-22T01:33:46.586Z,86.63
2022-09-22T01:33:56.656Z,86.63
2022-09-22T01:34:06.743Z,86.63
2022-09-22T01:34:16.805Z,86.73
2022-09-22T01:34:26.894Z,86.73
2022-09-22T01:34:36.984Z,86.73
2022-09-22T01:34:47.055Z,86.73
2022-09-22T01:34:57.123Z,86.63
2022-09-22T01:35:07.193Z,86.73
2022-09-22T01:35:17.262Z,86.73
2022-09-22T01:35:27.335Z,86.63
2022-09-22T01:35:37.414Z,86.73
2022-09-22T01:35:47.485Z,86.73
2022-09-22T01:35:57.625Z,86.73
2022-09-22T01:36:07.702Z,86.73
2022-09-22T01:36:17.823Z,86.73
2022-09-22T01:36:27.902Z,86.83
2022-09-22T01:36:37.986Z,86.83
2022-09-22T01:36:48.073Z,86.83
2022-09-22T01:36:58.181Z,86.83
2022-09-22T01:37:08.244Z,86.83
2022-09-22T01:37:18.334Z,86.83
2022-09-22T01:37:28.422Z,86.83
2022-09-22T01:37:38.504Z,86.83
2022-09-22T01:37:48.592Z,86.83
2022-09-22T01:37:58.724Z,86.83
2022-09-22T01:38:08.812Z,86.83
2022-09-22T01:38:18.884Z,86.83
2022-09-22T01:38:28.973Z,86.94
2022-09-22T01:38:39.034Z,86.94
2022-09-22T01:38:49.133Z,86.94
2022-09-22T01:38:59.222Z,86.94
2022-09-22T01:39:09.284Z,86.94
2022-09-22T01:39:19.374Z,86.94
2022-09-22T01:39:29.442Z,86.94
2022-09-22T01:39:39.505Z,86.94
2022-09-22T01:39:49.583Z,86.94
2022-09-22T01:39:59.654Z,86.94
2022-09-22T01:40:09.769Z,86.83
2022-09-22T01:40:19.851Z,86.83
2022-09-22T01:40:30.020Z,86.83
2022-09-22T01:40:40.043Z,86.83
2022-09-22T01:40:50.036Z,86.83
2022-09-22T01:41:00.101Z,86.83
2022-09-22T01:41:10.174Z,86.83
2022-09-22T01:41:20.253Z,86.83
2022-09-22T01:41:30.333Z,86.83
2022-09-22T01:41:40.415Z,86.83
2022-09-22T01:41:50.485Z,86.83
2022-09-22T01:42:00.565Z,86.83
2022-09-22T01:42:10.646Z,86.83
2022-09-22T01:42:20.731Z,86.94
2022-09-22T01:42:30.844Z,86.94
2022-09-22T01:42:40.933Z,86.94
2022-09-22T01:42:51.022Z,86.94
2022-09-22T01:43:01.104Z,86.94
2022-09-22T01:43:11.185Z,86.94
2022-09-22T01:43:21.267Z,87.04
2022-09-22T01:43:31.354Z,87.04
2022-09-22T01:43:41.423Z,87.04
2022-09-22T01:43:51.492Z,87.04
2022-09-22T01:44:01.574Z,87.04
2022-09-22T01:44:11.654Z,87.04
2022-09-22T01:44:21.804Z,87.04
2022-09-22T01:44:31.894Z,87.04
2022-09-22T01:44:41.974Z,87.04
2022-09-22T01:44:52.062Z,87.04
2022-09-22T01:45:02.175Z,87.04
2022-09-22T01:45:12.244Z,87.04
2022-09-22T01:45:22.325Z,87.04
2022-09-22T01:45:32.404Z,87.04
2022-09-22T01:45:42.494Z,87.04
2022-09-22T01:45:52.564Z,87.04
2022-09-22T01:46:02.668Z,87.04
2022-09-22T01:46:12.818Z,87.04
2022-09-22T01:46:22.950Z,87.04
2022-09-22T01:46:33.062Z,87.04
2022-09-22T01:46:43.214Z,87.04
2022-09-22T01:46:53.302Z,87.04
2022-09-22T01:47:03.396Z,87.04
2022-09-22T01:47:13.475Z,87.04
2022-09-22T01:47:23.563Z,87.04
2022-09-22T01:47:33.654Z,86.94
2022-09-22T01:47:43.704Z,86.94
2022-09-22T01:47:53.795Z,86.94
2022-09-22T01:48:03.870Z,87.04
2022-09-22T01:48:13.944Z,87.04
2022-09-22T01:48:24.013Z,87.04
2022-09-22T01:48:34.101Z,87.04
2022-09-22T01:48:44.183Z,87.04
2022-09-22T01:48:54.263Z,87.04
2022-09-22T01:49:04.341Z,87.04
2022-09-22T01:49:14.413Z,87.04
2022-09-22T01:49:24.500Z,87.04
2022-09-22T01:49:34.563Z,87.04
2022-09-22T01:49:44.645Z,87.04
2022-09-22T01:49:54.714Z,87.04
2022-09-22T01:50:04.805Z,87.04
2022-09-22T01:50:14.871Z,87.04
2022-09-22T01:50:24.953Z,87.04
2022-09-22T01:50:35.024Z,87.04
2022-09-22T01:50:45.183Z,87.04
2022-09-22T01:50:55.343Z,87.04
2022-09-22T01:51:05.421Z,87.04
2022-09-22T01:51:15.531Z,87.04
2022-09-22T01:51:25.593Z,87.04
2022-09-22T01:51:35.673Z,87.04
2022-09-22T01:51:45.753Z,87.04
2022-09-22T01:51:55.833Z,87.04
2022-09-22T01:52:05.924Z,87.04
2022-09-22T01:52:16.011Z,87.04
2022-09-22T01:52:26.084Z,86.94
2022-09-22T01:52:36.171Z,86.94
2022-09-22T01:52:46.243Z,87.04
2022-09-22T01:52:56.323Z,86.94
2022-09-22T01:53:06.394Z,86.94
2022-09-22T01:53:16.444Z,86.94
2022-09-22T01:53:26.523Z,86.94
2022-09-22T01:53:36.599Z,86.94
2022-09-22T01:53:46.672Z,86.94
2022-09-22T01:53:56.765Z,86.94
2022-09-22T01:54:06.889Z,86.94
2022-09-22T01:54:16.977Z,86.94
2022-09-22T01:54:27.107Z,86.94
2022-09-22T01:54:37.193Z,86.94
2022-09-22T01:54:47.255Z,86.94
2022-09-22T01:54:57.373Z,86.94
2022-09-22T01:55:07.442Z,86.94
2022-09-22T01:55:17.523Z,86.94
2022-09-22T01:55:27.607Z,86.94
2022-09-22T01:55:37.672Z,86.94
2022-09-22T01:55:47.743Z,86.94
2022-09-22T01:55:57.803Z,86.94
2022-09-22T01:56:07.912Z,86.94
2022-09-22T01:56:18.010Z,86.94
2022-09-22T01:56:28.091Z,86.94
2022-09-22T01:56:38.163Z,86.94
2022-09-22T01:56:48.291Z,86.94
2022-09-22T01:56:58.412Z,86.94
2022-09-22T01:57:08.482Z,86.94
2022-09-22T01:57:18.571Z,86.83
2022-09-22T01:57:28.723Z,86.83
2022-09-22T01:57:38.813Z,86.83
2022-09-22T01:57:48.901Z,86.83
2022-09-22T01:57:58.984Z,86.83
2022-09-22T01:58:09.082Z,86.83
2022-09-22T01:58:19.156Z,86.83
2022-09-22T01:58:29.235Z,86.83
2022-09-22T01:58:39.301Z,86.83
2022-09-22T01:58:49.384Z,86.83
2022-09-22T01:58:59.471Z,86.83
2022-09-22T01:59:09.563Z,86.83
2022-09-22T01:59:19.653Z,86.83
2022-09-22T01:59:29.722Z,86.83
2022-09-22T01:59:39.803Z,86.83
2022-09-22T01:59:49.882Z,86.83
2022-09-22T01:59:59.952Z,86.83
2022-09-22T02:00:10.039Z,86.83
2022-09-22T02:00:20.122Z,86.83
2022-09-22T02:00:30.211Z,86.83
2022-09-22T02:00:40.273Z,86.83
2022-09-22T02:00:50.401Z,86.83
2022-09-22T02:01:00.530Z,86.83
2022-09-22T02:01:14.396Z,86.83
2022-09-22T02:01:20.724Z,86.94
2022-09-22T02:01:30.872Z,86.94
2022-09-22T02:01:41.027Z,86.98
2022-09-22T02:01:51.204Z,86.94
2022-09-22T02:02:01.263Z,86.98
2022-09-22T02:02:11.278Z,86.98
2022-09-22T02:02:21.294Z,86.98
2022-09-22T02:02:31.624Z,87.08
2022-09-22T02:02:41.586Z,87.04
2022-09-22T02:02:51.631Z,87.08
2022-09-22T02:03:01.689Z,87.08
2022-09-22T02:03:11.638Z,87.08
2022-09-22T02:03:21.712Z,87.08
2022-09-22T02:03:31.783Z,87.08
2022-09-22T02:03:41.872Z,87.08
2022-09-22T02:03:51.939Z,87.08
2022-09-22T02:04:02.006Z,87.08
2022-09-22T02:04:12.094Z,87.08
2022-09-22T02:04:22.173Z,87.08
2022-09-22T02:04:32.252Z,87.08
2022-09-22T02:04:42.331Z,87.08
2022-09-22T02:04:52.403Z,87.08
2022-09-22T02:05:02.490Z,87.08
2022-09-22T02:05:12.552Z,87.08
2022-09-22T02:05:22.730Z,87.08
2022-09-22T02:05:32.802Z,87.18
2022-09-22T02:05:42.872Z,87.08
2022-09-22T02:05:52.949Z,87.18
2022-09-22T02:06:03.023Z,87.18
2022-09-22T02:06:13.101Z,87.18
2022-09-22T02:06:23.184Z,87.18
2022-09-22T02:06:33.252Z,87.18
2022-09-22T02:06:43.354Z,87.29
2022-09-22T02:06:53.467Z,87.29
2022-09-22T02:07:03.522Z,87.29
2022-09-22T02:07:13.602Z,87.29
2022-09-22T02:07:23.685Z,87.29
2022-09-22T02:07:33.810Z,87.38
2022-09-22T02:07:43.892Z,87.38
2022-09-22T02:07:53.982Z,87.38
2022-09-22T02:08:04.069Z,87.38
2022-09-22T02:08:14.166Z,87.38
2022-09-22T02:08:24.272Z,87.38
2022-09-22T02:08:34.359Z,87.38
2022-09-22T02:08:44.471Z,87.38
2022-09-22T02:08:54.581Z,87.38
2022-09-22T02:09:04.660Z,87.49
2022-09-22T02:09:14.740Z,87.49
2022-09-22T02:09:24.752Z,87.49
2022-09-22T02:09:34.822Z,87.49
2022-09-22T02:09:44.892Z,87.49
2022-09-22T02:09:54.978Z,87.59
2022-09-22T02:10:05.061Z,87.59
2022-09-22T02:10:15.132Z,87.59
2022-09-22T02:10:25.229Z,87.70